createdAt,value
2018-12-20T00:02:15.280Z,5.60
2018-12-20T00:04:44.220Z,5.60
2018-12-20T00:07:12.429Z,5.60
2018-12-20T00:09:40.529Z,5.70
2018-12-20T00:12:08.602Z,5.70
2018-12-20T00:14:36.766Z,5.70
2018-12-20T00:17:10.334Z,5.70
2018-12-20T00:19:38.474Z,5.70
2018-12-20T00:22:07.754Z,5.60
2018-12-20T00:24:35.819Z,5.70
2018-12-20T00:27:03.928Z,5.70
2018-12-20T00:29:31.968Z,5.70
2018-12-20T00:32:00.118Z,5.70
2018-12-20T00:34:28.242Z,5.70
2018-12-20T00:36:56.586Z,5.70
2018-12-20T00:39:25.317Z,5.70
2018-12-20T00:41:53.594Z,5.70
2018-12-20T00:44:21.726Z,5.70
2018-12-20T00:46:49.891Z,5.80
2018-12-20T00:49:18.087Z,5.70
2018-12-20T00:51:46.143Z,5.70
2018-12-20T00:54:14.319Z,5.70
2018-12-20T00:56:42.380Z,5.70
2018-12-20T00:59:10.979Z,5.70
2018-12-20T01:01:39.171Z,5.70
2018-12-20T01:04:07.279Z,5.80
2018-12-20T01:06:35.315Z,5.70
2018-12-20T01:09:05.059Z,5.80
2018-12-20T01:11:33.297Z,5.70
2018-12-20T01:14:01.683Z,5.70
2018-12-20T01:16:29.847Z,5.80
2018-12-20T01:18:57.896Z,5.80
2018-12-20T01:21:26.063Z,5.80
2018-12-20T01:23:54.175Z,5.70
2018-12-20T01:26:22.402Z,5.70
2018-12-20T01:28:50.616Z,5.70
2018-12-20T01:31:18.820Z,5.70
2018-12-20T01:33:47.033Z,5.70
2018-12-20T01:36:15.134Z,5.70
2018-12-20T01:38:43.904Z,5.70
2018-12-20T01:41:12.063Z,5.70
2018-12-20T01:43:40.293Z,5.70
2018-12-20T01:46:08.523Z,5.70
2018-12-20T01:48:36.781Z,5.70
2018-12-20T01:51:04.919Z,5.70
2018-12-20T01:53:33.210Z,5.70
2018-12-20T01:56:01.480Z,5.80
2018-12-20T01:58:29.715Z,5.80
2018-12-20T02:00:57.816Z,5.80
2018-12-20T02:03:26.113Z,5.80
2018-12-20T02:05:54.379Z,5.90
2018-12-20T02:08:22.483Z,5.90
2018-12-20T02:10:50.840Z,5.90
2018-12-20T02:13:19.139Z,5.90
2018-12-20T02:15:47.383Z,5.90
2018-12-20T02:18:15.474Z,5.90
2018-12-20T02:20:43.536Z,5.90
2018-12-20T02:23:11.724Z,5.90
2018-12-20T02:25:40.021Z,5.90
2018-12-20T02:28:08.195Z,5.90
2018-12-20T02:30:36.588Z,5.90
2018-12-20T02:33:04.922Z,5.90
2018-12-20T02:35:33.078Z,5.90
2018-12-20T02:38:01.163Z,5.90
2018-12-20T02:40:29.274Z,5.90
2018-12-20T02:42:57.590Z,5.90
2018-12-20T02:45:25.775Z,5.90
2018-12-20T02:47:53.889Z,5.90
2018-12-20T02:50:22.042Z,5.90
2018-12-20T02:52:50.174Z,5.90
2018-12-20T02:55:18.364Z,5.90
2018-12-20T02:57:46.601Z,5.90
2018-12-20T03:00:14.683Z,5.80
2018-12-20T03:02:42.788Z,5.80
2018-12-20T03:05:11.076Z,5.80
2018-12-20T03:07:39.207Z,5.80
2018-12-20T03:10:07.671Z,5.90
2018-12-20T03:12:35.877Z,5.80
2018-12-20T03:15:04.423Z,5.80
2018-12-20T03:17:32.732Z,5.80
2018-12-20T03:20:01.031Z,5.80
2018-12-20T03:22:29.211Z,5.80
2018-12-20T03:24:57.301Z,5.80
2018-12-20T03:27:25.458Z,5.80
2018-12-20T03:29:53.554Z,5.80
2018-12-20T03:32:21.750Z,5.80
2018-12-20T03:34:50.129Z,5.80
2018-12-20T03:37:18.370Z,5.80
2018-12-20T03:39:46.537Z,5.80
2018-12-20T03:42:14.846Z,5.80
2018-12-20T03:44:43.116Z,5.80
2018-12-20T03:47:11.260Z,5.70
2018-12-20T03:49:39.385Z,5.80
2018-12-20T03:52:07.491Z,5.80
2018-12-20T03:54:35.523Z,5.70
2018-12-20T03:57:04.122Z,5.70
2018-12-20T03:59:32.219Z,5.70
2018-12-20T04:02:00.393Z,5.70
2018-12-20T04:04:28.920Z,5.60
2018-12-20T04:06:57.910Z,5.60
2018-12-20T04:09:26.158Z,5.60
2018-12-20T04:11:54.347Z,5.50
2018-12-20T04:14:22.488Z,5.50
2018-12-20T04:16:50.684Z,5.50
2018-12-20T04:19:19.119Z,5.50
2018-12-20T04:21:47.290Z,5.50
2018-12-20T04:24:15.436Z,5.50
2018-12-20T04:26:43.707Z,5.50
2018-12-20T04:29:11.835Z,5.50
2018-12-20T04:31:40.478Z,5.50
2018-12-20T04:34:08.724Z,5.50
2018-12-20T04:36:36.770Z,5.50
2018-12-20T04:39:07.258Z,5.50
2018-12-20T04:41:35.584Z,5.50
2018-12-20T04:44:03.700Z,5.50
2018-12-20T04:46:31.881Z,5.50
2018-12-20T04:49:00.080Z,5.50
2018-12-20T04:51:28.379Z,5.50
2018-12-20T04:53:56.535Z,5.40
2018-12-20T04:56:24.754Z,5.50
2018-12-20T04:58:52.799Z,5.50
2018-12-20T05:01:20.947Z,5.50
2018-12-20T05:03:49.180Z,5.60
2018-12-20T05:06:17.210Z,5.60
2018-12-20T05:08:45.597Z,5.50
2018-12-20T05:11:13.808Z,5.60
2018-12-20T05:13:42.144Z,5.50
2018-12-20T05:16:10.343Z,5.60
2018-12-20T05:18:38.460Z,5.60
2018-12-20T05:21:06.581Z,5.60
2018-12-20T05:23:34.717Z,5.60
2018-12-20T05:26:02.813Z,5.60
2018-12-20T05:28:31.147Z,5.60
2018-12-20T05:30:59.363Z,5.60
2018-12-20T05:33:27.426Z,5.60
2018-12-20T05:35:55.579Z,5.60
2018-12-20T05:38:23.851Z,5.70
2018-12-20T05:40:52.291Z,5.70
2018-12-20T05:43:20.544Z,5.70
2018-12-20T05:45:48.686Z,5.70
2018-12-20T05:48:16.844Z,5.70
2018-12-20T05:50:45.322Z,5.70
2018-12-20T05:53:13.530Z,5.70
2018-12-20T05:55:41.533Z,5.70
2018-12-20T05:58:09.663Z,5.70
2018-12-20T06:00:37.965Z,5.70
2018-12-20T06:03:06.188Z,5.70
2018-12-20T06:05:34.382Z,5.70
2018-12-20T06:08:02.460Z,5.70
2018-12-20T06:10:30.496Z,5.70
2018-12-20T06:12:58.686Z,5.70
2018-12-20T06:15:27.068Z,5.70
2018-12-20T06:17:55.201Z,5.70
2018-12-20T06:20:23.482Z,5.70
2018-12-20T06:22:51.589Z,5.70
2018-12-20T06:25:21.345Z,5.80
2018-12-20T06:27:49.641Z,5.70
2018-12-20T06:30:17.746Z,5.80
2018-12-20T06:32:45.822Z,5.70
2018-12-20T06:35:13.882Z,5.80
2018-12-20T06:37:42.197Z,5.80
2018-12-20T06:40:10.387Z,5.90
2018-12-20T06:42:38.399Z,5.90
2018-12-20T06:45:06.457Z,5.80
2018-12-20T06:47:34.510Z,5.80
2018-12-20T06:50:02.547Z,5.90
2018-12-20T06:52:30.604Z,5.90
2018-12-20T06:54:58.686Z,5.90
2018-12-20T06:57:26.722Z,5.90
2018-12-20T06:59:54.807Z,6.00
2018-12-20T07:02:22.940Z,5.90
2018-12-20T07:04:51.067Z,5.90
2018-12-20T07:07:19.116Z,5.90
2018-12-20T07:09:47.166Z,5.90
2018-12-20T07:12:15.204Z,5.90
2018-12-20T07:14:43.212Z,5.90
2018-12-20T07:17:11.270Z,5.90
2018-12-20T07:19:39.381Z,5.90
2018-12-20T07:22:07.439Z,5.90
2018-12-20T07:24:35.510Z,5.90
2018-12-20T07:27:03.558Z,5.90
2018-12-20T07:29:31.709Z,5.90
2018-12-20T07:31:59.763Z,5.90
2018-12-20T07:34:27.873Z,6.00
2018-12-20T07:36:55.953Z,5.90
2018-12-20T07:39:24.007Z,5.90
2018-12-20T07:41:52.058Z,5.90
2018-12-20T07:44:20.177Z,5.90
2018-12-20T07:46:48.451Z,5.90
2018-12-20T07:49:16.541Z,5.90
2018-12-20T07:51:44.691Z,6.00
2018-12-20T07:54:12.778Z,6.00
2018-12-20T07:56:40.805Z,6.00
2018-12-20T07:59:08.901Z,6.00
2018-12-20T08:01:36.922Z,6.10
2018-12-20T08:04:05.071Z,6.10
2018-12-20T08:06:33.215Z,6.20
2018-12-20T08:09:01.305Z,6.20
2018-12-20T08:11:29.375Z,6.10
2018-12-20T08:13:57.375Z,6.10
2018-12-20T08:16:25.446Z,6.20
2018-12-20T08:18:53.538Z,6.10
2018-12-20T08:21:21.614Z,6.10
2018-12-20T08:23:49.666Z,6.10
2018-12-20T08:26:17.742Z,6.20
2018-12-20T08:28:45.741Z,6.20
2018-12-20T08:31:13.794Z,6.20
2018-12-20T08:33:41.840Z,6.20
2018-12-20T08:36:09.938Z,6.20
2018-12-20T08:38:38.760Z,6.20
2018-12-20T08:41:06.794Z,6.20
2018-12-20T08:43:34.839Z,6.20
2018-12-20T08:46:02.891Z,6.20
2018-12-20T08:48:31.214Z,6.30
2018-12-20T08:50:59.310Z,6.30
2018-12-20T08:53:27.422Z,6.30
2018-12-20T08:55:55.536Z,6.30
2018-12-20T08:58:23.636Z,6.40
2018-12-20T09:00:51.687Z,6.40
2018-12-20T09:03:19.729Z,6.40
2018-12-20T09:05:47.827Z,6.40
2018-12-20T09:08:15.921Z,6.40
2018-12-20T09:10:44.090Z,6.40
2018-12-20T09:13:12.066Z,6.50
2018-12-20T09:15:40.113Z,6.50
2018-12-20T09:18:08.205Z,6.50
2018-12-20T09:20:36.263Z,6.50
2018-12-20T09:23:05.101Z,6.40
2018-12-20T09:25:33.179Z,6.50
2018-12-20T09:28:01.410Z,6.50
2018-12-20T09:30:30.580Z,6.50
2018-12-20T09:32:59.063Z,6.50
2018-12-20T09:35:27.130Z,6.60
2018-12-20T09:37:55.082Z,6.60
2018-12-20T09:40:23.166Z,6.60
2018-12-20T09:42:51.955Z,6.70
2018-12-20T09:45:20.123Z,6.70
2018-12-20T09:47:53.976Z,6.70
2018-12-20T09:50:22.093Z,6.60
2018-12-20T09:52:50.229Z,6.70
2018-12-20T09:55:18.420Z,6.70
2018-12-20T09:57:46.556Z,6.70
2018-12-20T10:00:14.715Z,6.70
2018-12-20T10:22:50.968Z,6.80
2018-12-20T10:25:19.072Z,6.80
2018-12-20T10:27:47.176Z,6.80
2018-12-20T10:30:15.274Z,6.80
2018-12-20T10:32:43.447Z,6.70
2018-12-20T10:35:11.533Z,6.70
2018-12-20T10:37:39.601Z,6.80
2018-12-20T10:40:07.642Z,6.80
2018-12-20T10:42:36.452Z,6.90
2018-12-20T10:45:04.944Z,6.90
2018-12-20T10:47:33.040Z,6.90
2018-12-20T10:50:01.175Z,6.90
2018-12-20T10:52:29.262Z,6.90
2018-12-20T10:54:57.329Z,7.00
2018-12-20T10:57:25.507Z,7.00
2018-12-20T10:59:53.600Z,6.90
2018-12-20T11:02:27.187Z,7.00
2018-12-20T11:05:01.737Z,7.00
2018-12-20T11:07:35.360Z,7.00
2018-12-20T11:10:09.430Z,7.00
2018-12-20T11:12:42.986Z,7.10
2018-12-20T11:15:11.046Z,7.10
2018-12-20T11:17:39.162Z,7.20
2018-12-20T11:20:07.418Z,7.20
2018-12-20T11:22:35.606Z,7.20
2018-12-20T11:25:03.763Z,7.30
2018-12-20T11:27:31.943Z,7.20
2018-12-20T11:29:59.968Z,7.20
2018-12-20T11:32:28.062Z,7.20
2018-12-20T11:34:56.147Z,7.20
2018-12-20T11:37:24.230Z,7.20
2018-12-20T11:39:59.355Z,7.20
2018-12-20T11:42:22.425Z,7.30
2018-12-20T11:44:50.566Z,7.30
2018-12-20T11:47:24.215Z,7.30
2018-12-20T11:49:52.363Z,7.30
2018-12-20T11:52:20.359Z,7.40
2018-12-20T11:54:48.403Z,7.40
2018-12-20T11:57:16.579Z,7.40
2018-12-20T11:59:44.652Z,7.30
2018-12-20T12:02:12.975Z,7.30
2018-12-20T12:04:41.070Z,7.40
2018-12-20T12:07:09.187Z,7.30
2018-12-20T12:09:37.271Z,7.30
2018-12-20T12:12:05.378Z,7.30
2018-12-20T12:14:33.455Z,7.30
2018-12-20T12:17:01.647Z,7.30
2018-12-20T12:19:29.825Z,7.40
2018-12-20T12:21:57.910Z,7.40
2018-12-20T12:24:25.994Z,7.40
2018-12-20T12:26:54.102Z,7.40
2018-12-20T12:29:22.239Z,7.40
2018-12-20T12:31:50.378Z,7.50
2018-12-20T12:34:18.534Z,7.60
2018-12-20T12:36:46.726Z,7.60
2018-12-20T12:39:14.740Z,7.60
2018-12-20T12:41:43.022Z,7.70
2018-12-20T12:44:11.063Z,7.60
2018-12-20T12:46:39.078Z,7.70
2018-12-20T12:49:07.176Z,7.60
2018-12-20T12:51:35.366Z,7.60
2018-12-20T12:54:04.117Z,7.70
2018-12-20T12:56:32.227Z,7.70
2018-12-20T12:59:00.486Z,7.70
2018-12-20T13:01:28.552Z,7.80
2018-12-20T13:03:57.409Z,7.80
2018-12-20T13:06:25.727Z,7.90
2018-12-20T13:08:53.949Z,7.90
2018-12-20T13:11:22.279Z,8.00
2018-12-20T13:13:50.332Z,8.10
2018-12-20T13:16:18.470Z,8.40
2018-12-20T13:18:46.558Z,8.60
2018-12-20T13:21:14.813Z,8.80
2018-12-20T13:23:42.986Z,8.70
2018-12-20T13:26:11.113Z,8.50
2018-12-20T13:28:39.304Z,8.30
2018-12-20T13:31:07.334Z,8.30
2018-12-20T13:33:35.425Z,8.20
2018-12-20T13:36:03.465Z,8.20
2018-12-20T13:38:31.708Z,8.30
2018-12-20T13:40:59.806Z,8.50
2018-12-20T13:43:27.868Z,8.50
2018-12-20T13:45:55.970Z,8.50
2018-12-20T13:48:24.279Z,8.60
2018-12-20T13:50:52.358Z,8.60
2018-12-20T13:53:20.473Z,8.50
2018-12-20T13:55:48.649Z,8.50
2018-12-20T13:58:16.854Z,8.40
2018-12-20T14:00:45.027Z,8.40
2018-12-20T14:03:13.131Z,8.40
2018-12-20T14:05:41.205Z,8.30
2018-12-20T14:08:09.345Z,8.30
2018-12-20T14:10:38.290Z,8.40
2018-12-20T14:13:06.510Z,8.40
2018-12-20T14:15:34.659Z,8.30
2018-12-20T14:18:02.894Z,8.30
2018-12-20T14:20:30.959Z,8.30
2018-12-20T14:22:59.273Z,8.30
2018-12-20T14:25:27.434Z,8.30
2018-12-20T14:27:55.543Z,8.30
2018-12-20T14:30:23.493Z,8.30
2018-12-20T14:32:51.686Z,8.30
2018-12-20T14:35:19.714Z,8.20
2018-12-20T14:37:47.828Z,8.20
2018-12-20T14:40:15.893Z,8.10
2018-12-20T14:42:44.039Z,8.10
2018-12-20T14:45:12.217Z,8.00
2018-12-20T14:47:40.262Z,8.00
2018-12-20T14:50:09.204Z,8.00
2018-12-20T14:52:37.352Z,8.00
2018-12-20T14:55:07.194Z,8.00
2018-12-20T14:57:35.254Z,8.00
2018-12-20T15:00:03.949Z,8.00
2018-12-20T15:02:32.008Z,8.00
2018-12-20T15:05:00.227Z,7.90
2018-12-20T15:07:28.343Z,7.90
2018-12-20T15:09:56.538Z,7.90
2018-12-20T15:12:24.786Z,7.90
2018-12-20T15:14:53.108Z,7.90
2018-12-20T15:17:21.162Z,7.90
2018-12-20T15:19:49.242Z,7.90
2018-12-20T15:22:17.349Z,7.90
2018-12-20T15:24:45.450Z,7.80
2018-12-20T15:27:13.642Z,7.80
2018-12-20T15:29:42.014Z,7.80
2018-12-20T15:32:10.080Z,7.80
2018-12-20T15:34:38.320Z,7.70
2018-12-20T15:37:06.338Z,7.70
2018-12-20T15:39:34.409Z,7.70
2018-12-20T15:42:02.570Z,7.70
2018-12-20T15:44:30.827Z,7.70
2018-12-20T15:46:58.974Z,7.70
2018-12-20T15:49:27.094Z,7.70
2018-12-20T15:51:55.169Z,7.60
2018-12-20T15:54:23.745Z,7.70
2018-12-20T15:56:51.872Z,7.60
2018-12-20T15:59:20.066Z,7.60
2018-12-20T16:01:48.607Z,7.60
2018-12-20T16:04:16.738Z,7.50
2018-12-20T16:06:44.827Z,7.60
2018-12-20T16:09:13.077Z,7.60
2018-12-20T16:11:41.795Z,7.50
2018-12-20T16:14:09.898Z,7.60
2018-12-20T16:16:38.053Z,7.50
2018-12-20T16:19:06.127Z,7.60
2018-12-20T16:21:34.258Z,7.60
2018-12-20T16:24:02.321Z,7.60
2018-12-20T16:26:30.434Z,7.50
2018-12-20T16:28:58.540Z,7.50
2018-12-20T16:31:26.642Z,7.50
2018-12-20T16:33:56.224Z,7.60
2018-12-20T16:36:24.557Z,7.60
2018-12-20T16:38:53.583Z,7.60
2018-12-20T16:41:21.826Z,7.60
2018-12-20T16:43:50.091Z,7.60
2018-12-20T16:46:18.120Z,7.60
2018-12-20T16:48:46.238Z,7.60
2018-12-20T16:51:14.342Z,7.60
2018-12-20T16:53:42.479Z,7.60
2018-12-20T16:56:10.607Z,7.60
2018-12-20T16:58:38.829Z,7.60
2018-12-20T17:01:06.938Z,7.50
2018-12-20T17:03:35.051Z,7.50
2018-12-20T17:06:03.177Z,7.50
2018-12-20T17:08:31.234Z,7.50
2018-12-20T17:10:59.366Z,7.40
2018-12-20T17:13:27.400Z,7.50
2018-12-20T17:15:55.538Z,7.40
2018-12-20T17:18:23.797Z,7.50
2018-12-20T17:20:51.888Z,7.40
2018-12-20T17:23:19.938Z,7.50
2018-12-20T17:25:48.182Z,7.40
2018-12-20T17:28:16.244Z,7.40
2018-12-20T17:30:44.389Z,7.40
2018-12-20T17:33:12.480Z,7.50
2018-12-20T17:35:40.599Z,7.50
2018-12-20T17:38:08.655Z,7.50
2018-12-20T17:40:36.714Z,7.50
2018-12-20T17:43:04.841Z,7.50
2018-12-20T17:45:34.023Z,7.50
2018-12-20T17:48:02.215Z,7.50
2018-12-20T17:50:30.289Z,7.50
2018-12-20T17:52:58.462Z,7.50
2018-12-20T17:55:26.702Z,7.50
2018-12-20T17:57:54.766Z,7.50
2018-12-20T18:00:22.907Z,7.50
2018-12-20T18:02:50.915Z,7.50
2018-12-20T18:05:19.103Z,7.50
2018-12-20T18:07:47.151Z,7.50
2018-12-20T18:10:15.176Z,7.50
2018-12-20T18:12:43.407Z,7.60
2018-12-20T18:15:11.978Z,7.60
2018-12-20T18:17:40.103Z,7.60
2018-12-20T18:20:09.978Z,7.60
2018-12-20T18:22:38.155Z,7.60
2018-12-20T18:25:07.502Z,7.60
2018-12-20T18:27:35.606Z,7.70
2018-12-20T18:30:04.311Z,7.70
2018-12-20T18:32:32.414Z,7.70
2018-12-20T18:35:00.466Z,7.70
2018-12-20T18:37:28.624Z,7.70
2018-12-20T18:39:56.694Z,7.70
2018-12-20T18:42:24.831Z,7.70
2018-12-20T18:44:52.937Z,7.70
2018-12-20T18:47:21.094Z,7.70
2018-12-20T18:49:49.232Z,7.70
2018-12-20T18:52:17.417Z,7.70
2018-12-20T18:54:45.494Z,7.60
2018-12-20T18:57:13.611Z,7.60
2018-12-20T18:59:41.927Z,7.60
2018-12-20T19:02:10.122Z,7.50
2018-12-20T19:04:38.122Z,7.50
2018-12-20T19:07:06.223Z,7.50
2018-12-20T19:09:34.296Z,7.50
2018-12-20T19:12:02.515Z,7.50
2018-12-20T19:14:30.590Z,7.50
2018-12-20T19:16:58.709Z,7.50
2018-12-20T19:19:26.752Z,7.50
2018-12-20T19:21:54.950Z,7.50
2018-12-20T19:24:23.022Z,7.40
2018-12-20T19:26:51.122Z,7.50
2018-12-20T19:29:19.199Z,7.40
2018-12-20T19:31:47.311Z,7.50
2018-12-20T19:34:15.362Z,7.40
2018-12-20T19:36:43.490Z,7.40
2018-12-20T19:39:14.340Z,7.40
2018-12-20T19:41:42.432Z,7.40
2018-12-20T19:44:10.510Z,7.40
2018-12-20T19:46:38.918Z,7.40
2018-12-20T19:49:06.983Z,7.40
2018-12-20T19:51:35.079Z,7.40
2018-12-20T19:54:03.118Z,7.40
2018-12-20T19:56:31.267Z,7.40
2018-12-20T19:58:59.338Z,7.50
2018-12-20T20:01:27.426Z,7.40
2018-12-20T20:03:55.508Z,7.40
2018-12-20T20:06:23.631Z,7.50
2018-12-20T20:08:51.905Z,7.50
2018-12-20T20:11:19.979Z,7.50
2018-12-20T20:13:48.172Z,7.40
2018-12-20T20:16:16.301Z,7.50
2018-12-20T20:18:44.544Z,7.50
2018-12-20T20:21:12.606Z,7.40
2018-12-20T20:23:40.783Z,7.40
2018-12-20T20:26:08.843Z,7.40
2018-12-20T20:28:36.910Z,7.40
2018-12-20T20:31:04.966Z,7.40
2018-12-20T20:33:33.046Z,7.30
2018-12-20T20:36:01.515Z,7.30
2018-12-20T20:38:29.699Z,7.30
2018-12-20T20:40:57.726Z,7.30
2018-12-20T20:43:25.854Z,7.20
2018-12-20T20:45:53.993Z,7.20
2018-12-20T20:48:22.154Z,7.20
2018-12-20T20:50:50.258Z,7.20
2018-12-20T20:53:18.401Z,7.20
2018-12-20T20:55:46.475Z,7.20
2018-12-20T20:58:14.698Z,7.20
2018-12-20T21:00:42.767Z,7.20
2018-12-20T21:03:10.997Z,7.20
2018-12-20T21:05:39.323Z,7.20
2018-12-20T21:08:07.470Z,7.20
2018-12-20T21:10:35.464Z,7.20
2018-12-20T21:13:03.604Z,7.20
2018-12-20T21:15:31.561Z,7.30
2018-12-20T21:17:59.696Z,7.30
2018-12-20T21:20:30.821Z,7.30
2018-12-20T21:22:57.834Z,7.30
2018-12-20T21:25:25.886Z,7.40
2018-12-20T21:27:53.965Z,7.30
2018-12-20T21:30:21.973Z,7.30
2018-12-20T21:32:50.150Z,7.30
2018-12-20T21:35:18.251Z,7.30
2018-12-20T21:37:46.309Z,7.30
2018-12-20T21:40:14.379Z,7.30
2018-12-20T21:42:42.539Z,7.30
2018-12-20T21:45:10.574Z,7.30
2018-12-20T21:47:38.634Z,7.30
2018-12-20T21:50:09.131Z,7.40
2018-12-20T21:52:37.212Z,7.40
2018-12-20T21:55:06.062Z,7.40
2018-12-20T21:57:34.116Z,7.40
2018-12-20T22:00:02.210Z,7.40
2018-12-20T22:02:30.254Z,7.40
2018-12-20T22:04:58.376Z,7.40
2018-12-20T22:07:26.518Z,7.30
2018-12-20T22:09:54.547Z,7.30
2018-12-20T22:12:22.543Z,7.30
2018-12-20T22:14:50.746Z,7.30
2018-12-20T22:17:18.828Z,7.40
2018-12-20T22:19:46.897Z,7.30
2018-12-20T22:22:15.034Z,7.30
2018-12-20T22:24:43.079Z,7.30
2018-12-20T22:27:11.132Z,7.20
2018-12-20T22:29:39.374Z,7.20
2018-12-20T22:32:07.434Z,7.20
2018-12-20T22:34:35.495Z,7.30
2018-12-20T22:37:03.506Z,7.30
2018-12-20T22:39:31.532Z,7.20
2018-12-20T22:41:59.770Z,7.20
2018-12-20T22:44:27.861Z,7.20
2018-12-20T22:46:55.907Z,7.20
2018-12-20T22:49:23.987Z,7.30
2018-12-20T22:51:52.140Z,7.30
2018-12-20T22:54:20.256Z,7.30
2018-12-20T22:56:48.417Z,7.20
2018-12-20T22:59:16.463Z,7.30
2018-12-20T23:01:44.567Z,7.30
2018-12-20T23:04:12.775Z,7.30
2018-12-20T23:06:40.898Z,7.30
2018-12-20T23:09:09.008Z,7.30
2018-12-20T23:11:37.096Z,7.40
2018-12-20T23:14:05.218Z,7.30
2018-12-20T23:16:33.250Z,7.30
2018-12-20T23:19:01.361Z,7.30
2018-12-20T23:21:29.482Z,7.30
2018-12-20T23:23:57.536Z,7.30
2018-12-20T23:26:25.706Z,7.30
2018-12-20T23:28:53.788Z,7.40
2018-12-20T23:31:21.907Z,7.30
2018-12-20T23:33:49.999Z,7.30
2018-12-20T23:36:18.043Z,7.30
2018-12-20T23:38:46.085Z,7.40
2018-12-20T23:41:14.157Z,7.30
2018-12-20T23:43:42.321Z,7.30
2018-12-20T23:46:10.378Z,7.30
2018-12-20T23:48:38.450Z,7.30
2018-12-20T23:51:13.404Z,7.30
2018-12-20T23:53:36.643Z,7.30
2018-12-20T23:56:04.720Z,7.30
2018-12-20T23:58:32.800Z,7.30
